createdAt,value
2022-08-07T00:02:36.276Z,12.32
2022-08-07T00:04:24.640Z,12.35
2022-08-07T00:06:53.510Z,12.30
2022-08-07T00:09:29.214Z,12.24
2022-08-07T00:11:55.390Z,12.10
2022-08-07T00:14:25.375Z,12.32
2022-08-07T00:16:53.820Z,12.13
2022-08-07T00:19:26.017Z,12.01
2022-08-07T00:21:56.729Z,11.91
2022-08-07T00:24:23.948Z,11.87
2022-08-07T00:27:06.102Z,11.84
2022-08-07T00:29:25.506Z,11.75
2022-08-07T00:31:57.998Z,11.74
2022-08-07T00:34:27.484Z,11.69
2022-08-07T00:36:58.649Z,11.66
2022-08-07T00:39:29.225Z,11.64
2022-08-07T00:42:01.330Z,11.61
2022-08-07T00:44:29.716Z,11.52
2022-08-07T00:46:59.557Z,11.41
2022-08-07T00:50:19.216Z,11.44
2022-08-07T00:51:59.417Z,11.43
2022-08-07T00:54:28.227Z,11.41
2022-08-07T00:57:00.874Z,11.28
2022-08-07T00:59:35.223Z,11.42
2022-08-07T01:02:02.211Z,11.42
2022-08-07T01:04:32.815Z,11.36
2022-08-07T01:07:01.594Z,11.30
2022-08-07T01:10:05.182Z,11.25
2022-08-07T01:12:23.969Z,11.21
2022-08-07T01:14:37.174Z,11.15
2022-08-07T01:17:07.129Z,11.14
2022-08-07T01:19:38.540Z,11.15
2022-08-07T01:22:09.036Z,11.05
2022-08-07T01:24:42.131Z,11.04
2022-08-07T01:27:19.477Z,11.06
2022-08-07T01:29:42.718Z,11.00
2022-08-07T01:32:13.651Z,11.03
2022-08-07T01:34:47.425Z,11.04
2022-08-07T01:37:20.094Z,11.02
2022-08-07T01:39:50.762Z,10.97
2022-08-07T01:42:39.888Z,10.89
2022-08-07T01:44:52.557Z,10.87
2022-08-07T01:48:20.741Z,10.90
2022-08-07T01:49:54.645Z,10.89
2022-08-07T01:52:26.901Z,10.87
2022-08-07T01:54:57.081Z,10.91
2022-08-07T01:58:01.015Z,10.87
2022-08-07T02:00:03.508Z,10.78
2022-08-07T02:03:19.034Z,10.76
2022-08-07T02:05:43.160Z,10.77
2022-08-07T02:08:02.774Z,10.78
2022-08-07T02:10:35.527Z,10.74
2022-08-07T02:13:07.762Z,10.73
2022-08-07T02:15:39.921Z,10.73
2022-08-07T02:18:10.306Z,10.69
2022-08-07T02:20:43.266Z,10.66
2022-08-07T02:23:16.395Z,10.63
2022-08-07T02:26:30.888Z,10.62
2022-08-07T02:28:24.595Z,10.66
2022-08-07T02:30:52.311Z,10.60
2022-08-07T02:33:21.793Z,10.55
2022-08-07T02:36:30.865Z,10.59
2022-08-07T02:38:23.016Z,10.62
2022-08-07T02:40:56.004Z,10.51
2022-08-07T02:43:25.121Z,10.44
2022-08-07T02:46:00.814Z,10.37
2022-08-07T02:48:28.207Z,10.39
2022-08-07T02:50:58.335Z,10.37
2022-08-07T02:53:29.178Z,10.37
2022-08-07T02:56:03.958Z,10.36
2022-08-07T02:58:33.325Z,10.33
2022-08-07T03:01:04.158Z,10.32
2022-08-07T03:03:50.022Z,10.31
2022-08-07T03:06:06.452Z,10.29
2022-08-07T03:08:37.156Z,10.27
2022-08-07T03:11:06.235Z,10.27
2022-08-07T03:13:39.016Z,10.25
2022-08-07T03:16:09.174Z,10.23
2022-08-07T03:18:38.981Z,10.22
2022-08-07T03:21:11.423Z,10.21
2022-08-07T03:24:20.592Z,10.22
2022-08-07T03:26:20.940Z,10.20
2022-08-07T03:28:46.949Z,10.20
2022-08-07T03:31:19.647Z,10.19
2022-08-07T03:33:53.282Z,10.18
2022-08-07T03:36:25.894Z,10.17
2022-08-07T03:38:55.906Z,10.20
2022-08-07T03:41:42.534Z,10.21
2022-08-07T03:43:57.737Z,10.24
2022-08-07T03:46:29.079Z,10.23
2022-08-07T03:49:02.087Z,10.25
2022-08-07T03:51:47.938Z,10.29
2022-08-07T03:54:33.300Z,10.34
2022-08-07T03:56:37.008Z,10.32
2022-08-07T03:59:09.214Z,10.58
2022-08-07T04:01:39.327Z,10.52
2022-08-07T04:04:10.025Z,10.55
2022-08-07T04:06:44.341Z,10.73
2022-08-07T04:09:16.060Z,10.94
2022-08-07T04:12:25.369Z,11.19
2022-08-07T04:14:38.987Z,11.29
2022-08-07T04:16:58.371Z,11.36
2022-08-07T04:19:21.048Z,11.34
2022-08-07T04:22:05.377Z,11.37
2022-08-07T04:24:30.784Z,11.31
2022-08-07T04:26:56.311Z,11.21
2022-08-07T04:29:25.900Z,11.26
2022-08-07T04:32:03.133Z,11.40
2022-08-07T04:34:33.020Z,11.37
2022-08-07T04:37:02.223Z,11.44
2022-08-07T04:39:35.863Z,11.57
2022-08-07T04:42:04.016Z,11.67
2022-08-07T04:44:35.931Z,11.76
2022-08-07T04:47:08.293Z,11.94
2022-08-07T04:49:47.368Z,12.11
2022-08-07T04:52:21.437Z,12.26
2022-08-07T04:54:58.086Z,12.51
2022-08-07T04:58:16.887Z,12.75
2022-08-07T05:00:11.933Z,13.19
2022-08-07T05:02:51.363Z,13.35
2022-08-07T05:05:52.858Z,13.88
2022-08-07T05:07:59.321Z,14.56
2022-08-07T05:10:41.878Z,14.88
2022-08-07T05:14:54.301Z,15.29
2022-08-07T05:15:45.959Z,15.72
2022-08-07T05:18:16.402Z,15.98
2022-08-07T05:20:46.718Z,16.20
2022-08-07T05:23:18.471Z,16.43
2022-08-07T05:26:13.679Z,16.53
2022-08-07T05:28:23.354Z,17.08
2022-08-07T05:30:54.926Z,17.28
2022-08-07T05:33:28.335Z,17.53
2022-08-07T05:35:57.821Z,17.47
2022-08-07T05:38:58.400Z,17.71
2022-08-07T05:41:00.108Z,17.57
2022-08-07T05:43:50.253Z,17.52
2022-08-07T05:46:02.140Z,17.42
2022-08-07T05:48:31.076Z,17.49
2022-08-07T05:51:02.347Z,17.56
2022-08-07T05:54:13.413Z,17.74
2022-08-07T05:56:05.633Z,17.75
2022-08-07T05:58:40.644Z,17.50
2022-08-07T06:01:13.264Z,17.87
2022-08-07T06:03:57.271Z,18.10
2022-08-07T06:06:22.944Z,18.14
2022-08-07T06:08:54.899Z,18.11
2022-08-07T06:11:25.001Z,17.97
2022-08-07T06:14:11.701Z,18.07
2022-08-07T06:16:29.243Z,18.09
2022-08-07T06:18:57.717Z,18.17
2022-08-07T06:22:15.984Z,18.26
2022-08-07T06:24:52.302Z,18.71
2022-08-07T06:26:29.918Z,18.53
2022-08-07T06:29:01.171Z,18.69
2022-08-07T06:31:46.985Z,18.77
2022-08-07T06:34:02.594Z,18.96
2022-08-07T06:36:35.553Z,18.88
2022-08-07T06:40:16.941Z,18.72
2022-08-07T06:42:00.752Z,18.83
2022-08-07T06:44:10.979Z,18.82
2022-08-07T06:46:40.630Z,19.02
2022-08-07T06:49:12.531Z,19.35
2022-08-07T06:51:43.412Z,19.35
2022-08-07T06:55:31.624Z,19.29
2022-08-07T06:56:49.640Z,19.43
2022-08-07T07:00:13.185Z,19.54
2022-08-07T07:01:58.823Z,19.81
2022-08-07T07:04:33.839Z,19.39
2022-08-07T07:07:01.118Z,19.76
2022-08-07T07:09:31.874Z,20.00
2022-08-07T07:12:19.580Z,19.88
2022-08-07T07:14:47.220Z,19.72
2022-08-07T07:17:21.204Z,19.68
2022-08-07T07:19:57.726Z,19.62
2022-08-07T07:22:36.787Z,19.54
2022-08-07T07:24:56.927Z,19.31
2022-08-07T07:27:25.540Z,18.98
2022-08-07T07:30:09.939Z,19.49
2022-08-07T07:32:30.111Z,19.68
2022-08-07T07:35:00.431Z,19.71
2022-08-07T07:37:49.793Z,19.74
2022-08-07T07:40:03.015Z,19.71
2022-08-07T07:42:34.530Z,19.83
2022-08-07T07:45:05.981Z,19.60
2022-08-07T07:47:42.863Z,19.47
2022-08-07T07:50:33.699Z,20.05
2022-08-07T07:52:47.164Z,19.63
2022-08-07T07:55:17.460Z,20.29
2022-08-07T07:57:58.478Z,20.32
2022-08-07T08:00:29.683Z,20.47
2022-08-07T08:03:04.690Z,20.43
2022-08-07T08:05:30.255Z,20.43
2022-08-07T08:08:01.381Z,20.62
2022-08-07T08:10:35.533Z,21.15
2022-08-07T08:13:03.023Z,20.75
2022-08-07T08:18:17.965Z,21.42
2022-08-07T08:18:36.381Z,20.71
2022-08-07T08:20:36.548Z,21.20
2022-08-07T08:23:27.917Z,20.89
2022-08-07T08:26:14.425Z,21.73
2022-08-07T08:28:45.509Z,21.82
2022-08-07T08:31:18.308Z,21.77
2022-08-07T08:33:49.584Z,21.69
2022-08-07T08:36:17.233Z,21.92
2022-08-07T08:38:47.510Z,22.03
2022-08-07T08:41:19.297Z,21.98
2022-08-07T08:43:56.047Z,22.38
2022-08-07T08:46:44.945Z,22.33
2022-08-07T08:49:17.820Z,22.65
2022-08-07T08:52:12.860Z,22.90
2022-08-07T08:54:31.532Z,22.94
2022-08-07T08:57:03.363Z,22.90
2022-08-07T08:59:42.093Z,22.95
2022-08-07T09:02:10.110Z,22.77
2022-08-07T09:04:49.550Z,23.37
2022-08-07T09:07:46.555Z,23.64
2022-08-07T09:10:08.262Z,23.71
2022-08-07T09:12:38.668Z,23.45
2022-08-07T09:16:25.528Z,23.30
2022-08-07T09:18:08.763Z,23.72
2022-08-07T09:20:35.176Z,24.00
2022-08-07T09:24:52.495Z,24.12
2022-08-07T09:25:42.376Z,23.76
2022-08-07T09:30:01.263Z,24.08
2022-08-07T09:31:03.192Z,24.41
2022-08-07T09:33:57.638Z,24.03
2022-08-07T09:36:22.680Z,23.87
2022-08-07T09:38:57.660Z,23.96
2022-08-07T09:42:03.087Z,24.17
2022-08-07T09:44:58.686Z,24.28
2022-08-07T09:47:49.908Z,22.99
2022-08-07T09:49:59.768Z,22.77
2022-08-07T09:52:33.693Z,23.26
2022-08-07T09:54:50.125Z,23.35
2022-08-07T09:57:21.510Z,23.80
2022-08-07T10:00:00.639Z,24.03
2022-08-07T10:02:37.227Z,24.09
2022-08-07T10:05:29.777Z,22.14
2022-08-07T10:08:11.924Z,23.66
2022-08-07T10:11:16.861Z,23.73
2022-08-07T10:13:29.700Z,23.59
2022-08-07T10:15:47.699Z,23.26
2022-08-07T10:18:26.388Z,24.47
2022-08-07T10:20:51.028Z,24.62
2022-08-07T10:24:06.227Z,24.28
2022-08-07T10:26:10.085Z,23.82
2022-08-07T10:28:49.584Z,22.76
2022-08-07T10:31:38.497Z,22.56
2022-08-07T10:34:15.302Z,22.46
2022-08-07T10:36:38.611Z,22.80
2022-08-07T10:39:25.664Z,23.23
2022-08-07T10:42:09.852Z,23.62
2022-08-07T10:44:45.183Z,23.83
2022-08-07T10:47:14.425Z,24.73
2022-08-07T10:49:50.779Z,24.54
2022-08-07T10:52:22.160Z,24.37
2022-08-07T10:55:01.284Z,23.57
2022-08-07T10:57:41.362Z,23.12
2022-08-07T11:00:36.686Z,22.98
2022-08-07T11:03:03.018Z,22.77
2022-08-07T11:05:51.822Z,23.39
2022-08-07T11:08:41.206Z,23.47
2022-08-07T11:11:24.100Z,24.08
2022-08-07T11:14:45.087Z,24.19
2022-08-07T11:16:41.623Z,24.57
2022-08-07T11:19:28.983Z,24.95
2022-08-07T11:22:03.578Z,24.77
2022-08-07T11:24:51.863Z,25.12
2022-08-07T11:28:01.742Z,24.54
2022-08-07T11:30:19.418Z,23.42
2022-08-07T11:32:50.482Z,24.17
2022-08-07T11:35:26.778Z,23.50
2022-08-07T11:38:17.399Z,23.61
2022-08-07T11:40:53.996Z,23.79
2022-08-07T11:44:10.990Z,24.49
2022-08-07T11:46:12.326Z,24.52
2022-08-07T11:49:28.627Z,23.82
2022-08-07T11:51:45.078Z,23.32
2022-08-07T11:54:02.278Z,23.50
2022-08-07T11:56:52.235Z,23.53
2022-08-07T12:00:11.670Z,24.11
2022-08-07T12:02:00.632Z,24.68
2022-08-07T12:04:43.104Z,24.70
2022-08-07T12:07:38.591Z,24.63
2022-08-07T12:10:02.239Z,24.90
2022-08-07T12:12:41.254Z,24.95
2022-08-07T12:15:35.855Z,25.26
2022-08-07T12:17:59.353Z,24.36
2022-08-07T12:20:30.849Z,25.15
2022-08-07T12:23:09.202Z,25.07
2022-08-07T12:26:02.933Z,24.59
2022-08-07T12:28:37.967Z,24.60
2022-08-07T12:31:10.027Z,24.88
2022-08-07T12:33:56.604Z,25.26
2022-08-07T12:36:13.108Z,25.23
2022-08-07T12:38:57.046Z,25.64
2022-08-07T12:41:13.920Z,25.88
2022-08-07T12:44:02.676Z,25.86
2022-08-07T12:46:34.877Z,25.82
2022-08-07T12:49:09.769Z,25.97
2022-08-07T12:51:51.029Z,25.34
2022-08-07T12:54:37.704Z,25.26
2022-08-07T12:56:55.351Z,24.59
2022-08-07T12:59:30.436Z,24.05
2022-08-07T13:02:09.808Z,24.08
2022-08-07T13:04:36.678Z,24.48
2022-08-07T13:08:11.474Z,24.75
2022-08-07T13:10:19.347Z,25.16
2022-08-07T13:12:39.242Z,23.58
2022-08-07T13:15:14.448Z,24.69
2022-08-07T13:17:49.901Z,25.01
2022-08-07T13:20:27.779Z,24.58
2022-08-07T13:22:54.201Z,25.43
2022-08-07T13:25:29.760Z,25.55
2022-08-07T13:28:14.172Z,24.50
2022-08-07T13:30:39.637Z,25.31
2022-08-07T13:33:46.042Z,24.94
2022-08-07T13:35:59.916Z,24.81
2022-08-07T13:38:15.081Z,25.45
2022-08-07T13:40:45.676Z,25.59
2022-08-07T13:43:17.097Z,25.22
2022-08-07T13:46:10.994Z,25.44
2022-08-07T13:48:27.787Z,25.52
2022-08-07T13:51:01.332Z,25.53
2022-08-07T13:53:24.123Z,25.46
2022-08-07T13:55:54.319Z,25.60
2022-08-07T13:58:43.171Z,25.52
2022-08-07T14:01:15.038Z,25.56
2022-08-07T14:04:06.741Z,25.84
2022-08-07T14:06:17.418Z,25.60
2022-08-07T14:08:53.432Z,25.26
2022-08-07T14:11:19.393Z,24.30
2022-08-07T14:13:52.894Z,24.66
2022-08-07T14:16:31.339Z,25.17
2022-08-07T14:18:59.216Z,24.85
2022-08-07T14:22:00.968Z,25.18
2022-08-07T14:24:07.345Z,25.24
2022-08-07T14:26:40.731Z,25.03
2022-08-07T14:30:08.146Z,24.97
2022-08-07T14:31:56.286Z,24.95
2022-08-07T14:34:20.147Z,25.00
2022-08-07T14:36:48.019Z,25.34
2022-08-07T14:40:14.568Z,25.32
2022-08-07T14:42:20.168Z,25.47
2022-08-07T14:44:24.259Z,24.41
2022-08-07T14:47:08.702Z,25.28
2022-08-07T14:49:58.406Z,25.04
2022-08-07T14:57:04.706Z,25.53
2022-08-07T15:00:05.499Z,25.26
2022-08-07T15:02:34.159Z,25.17
2022-08-07T15:04:52.998Z,25.00
2022-08-07T15:07:17.842Z,24.88
2022-08-07T15:09:59.293Z,24.50
2022-08-07T15:12:26.300Z,24.19
2022-08-07T15:14:57.911Z,23.68
2022-08-07T15:17:30.222Z,23.53
2022-08-07T15:20:31.534Z,23.78
2022-08-07T15:22:33.705Z,24.01
2022-08-07T15:25:17.615Z,23.87
2022-08-07T15:27:36.953Z,24.03
2022-08-07T15:30:16.858Z,24.37
2022-08-07T15:32:51.098Z,23.89
2022-08-07T15:35:17.101Z,24.01
2022-08-07T15:40:33.968Z,23.66
2022-08-07T15:45:55.859Z,23.83
2022-08-07T15:48:03.335Z,23.82
2022-08-07T15:50:37.944Z,23.87
2022-08-07T15:53:09.173Z,24.00
2022-08-07T15:55:53.715Z,23.86
2022-08-07T15:58:21.013Z,23.69
2022-08-07T16:00:47.206Z,23.61
2022-08-07T16:03:46.371Z,23.52
2022-08-07T16:05:53.512Z,23.57
2022-08-07T16:08:33.090Z,23.43
2022-08-07T16:10:57.240Z,23.57
2022-08-07T16:13:57.685Z,23.35
2022-08-07T16:16:42.777Z,23.16
2022-08-07T16:18:50.361Z,23.21
2022-08-07T16:22:01.242Z,23.08
2022-08-07T16:24:03.960Z,23.16
2022-08-07T16:26:59.406Z,23.05
2022-08-07T16:30:10.356Z,23.12
2022-08-07T16:32:03.986Z,23.00
2022-08-07T16:34:34.214Z,22.71
2022-08-07T16:38:03.626Z,22.82
2022-08-07T16:39:57.264Z,22.62
2022-08-07T16:42:44.206Z,22.74
2022-08-07T16:48:07.973Z,22.76
2022-08-07T16:50:52.798Z,22.75
2022-08-07T16:53:55.535Z,22.76
2022-08-07T16:55:55.970Z,22.82
2022-08-07T16:59:10.330Z,22.97
2022-08-07T17:01:34.609Z,22.89
2022-08-07T17:04:24.868Z,22.80
2022-08-07T17:07:03.986Z,22.63
2022-08-07T17:10:05.090Z,22.61
2022-08-07T17:12:33.389Z,22.54
2022-08-07T17:14:44.629Z,22.60
2022-08-07T17:17:21.957Z,22.48
2022-08-07T17:20:01.487Z,22.32
2022-08-07T17:22:37.533Z,22.46
2022-08-07T17:25:05.263Z,22.47
2022-08-07T17:27:51.069Z,22.21
2022-08-07T17:30:27.007Z,22.30
2022-08-07T17:32:55.382Z,22.20
2022-08-07T17:35:55.066Z,22.27
2022-08-07T17:38:33.283Z,22.12
2022-08-07T17:42:01.627Z,22.04
2022-08-07T17:44:03.256Z,21.92
2022-08-07T17:46:34.502Z,21.77
2022-08-07T17:49:01.458Z,21.64
2022-08-07T17:52:00.896Z,21.49
2022-08-07T17:54:29.902Z,21.41
2022-08-07T17:56:54.549Z,21.10
2022-08-07T17:59:44.718Z,20.95
2022-08-07T18:02:15.126Z,20.99
2022-08-07T18:04:54.608Z,20.67
2022-08-07T18:07:34.609Z,20.55
2022-08-07T18:10:32.575Z,20.40
2022-08-07T18:16:04.870Z,20.15
2022-08-07T18:21:03.311Z,20.01
2022-08-07T18:21:37.219Z,19.76
2022-08-07T18:24:00.863Z,19.59
2022-08-07T18:26:32.480Z,19.41
2022-08-07T18:30:08.443Z,19.18
2022-08-07T18:31:41.530Z,19.00
2022-08-07T18:34:34.828Z,18.75
2022-08-07T18:36:55.286Z,18.54
2022-08-07T18:40:07.757Z,18.36
2022-08-07T18:42:15.972Z,18.19
2022-08-07T18:47:36.005Z,17.92
2022-08-07T18:50:39.647Z,17.75
2022-08-07T18:52:54.290Z,17.54
2022-08-07T18:55:42.626Z,17.45
2022-08-07T18:58:15.323Z,17.29
2022-08-07T19:00:54.163Z,17.15
2022-08-07T19:03:20.779Z,16.99
2022-08-07T19:06:02.652Z,16.93
2022-08-07T19:08:27.513Z,16.78
2022-08-07T19:11:15.535Z,16.68
2022-08-07T19:13:50.017Z,16.61
2022-08-07T19:17:06.694Z,16.51
2022-08-07T19:19:07.247Z,16.40
2022-08-07T19:21:58.302Z,16.36
2022-08-07T19:24:30.906Z,16.23
2022-08-07T19:28:30.086Z,16.16
2022-08-07T19:31:02.150Z,16.08
2022-08-07T19:32:18.502Z,16.01
2022-08-07T19:34:36.149Z,15.91
2022-08-07T19:37:10.129Z,15.81
2022-08-07T19:39:40.796Z,15.70
2022-08-07T19:42:22.491Z,15.65
2022-08-07T19:44:41.106Z,15.61
2022-08-07T19:47:14.306Z,15.53
2022-08-07T19:49:57.934Z,15.52
2022-08-07T19:52:18.484Z,15.44
2022-08-07T19:54:56.354Z,15.33
2022-08-07T19:58:01.618Z,15.18
2022-08-07T19:59:51.064Z,15.10
2022-08-07T20:02:51.899Z,15.01
2022-08-07T20:05:14.171Z,14.90
2022-08-07T20:07:45.786Z,14.88
2022-08-07T20:10:37.932Z,14.86
2022-08-07T20:12:48.560Z,14.84
2022-08-07T20:15:22.365Z,15.11
2022-08-07T20:17:56.365Z,14.94
2022-08-07T20:20:22.502Z,14.67
2022-08-07T20:22:56.063Z,14.54
2022-08-07T20:25:25.433Z,14.51
2022-08-07T20:27:58.583Z,14.46
2022-08-07T20:30:31.320Z,14.45
2022-08-07T20:33:01.042Z,14.43
2022-08-07T20:35:33.511Z,14.34
2022-08-07T20:38:03.021Z,14.25
2022-08-07T20:40:34.494Z,14.16
2022-08-07T20:43:09.563Z,14.09
2022-08-07T20:46:25.698Z,14.06
2022-08-07T20:48:06.676Z,14.00
2022-08-07T20:50:39.276Z,13.93
2022-08-07T20:53:11.575Z,13.87
2022-08-07T20:55:42.022Z,13.86
2022-08-07T20:58:19.336Z,13.83
2022-08-07T21:00:46.222Z,13.80
2022-08-07T21:03:16.860Z,13.79
2022-08-07T21:05:54.827Z,13.77
2022-08-07T21:08:36.892Z,13.71
2022-08-07T21:10:51.818Z,13.65
2022-08-07T21:13:24.757Z,13.61
2022-08-07T21:16:00.371Z,13.61
2022-08-07T21:18:33.633Z,13.56
2022-08-07T21:20:59.388Z,13.48
2022-08-07T21:23:29.958Z,13.46
2022-08-07T21:26:03.193Z,13.43
2022-08-07T21:28:50.942Z,13.37
2022-08-07T21:32:42.604Z,13.32
2022-08-07T21:34:04.277Z,13.31
2022-08-07T21:36:38.844Z,13.25
2022-08-07T21:39:46.084Z,13.19
2022-08-07T21:41:52.243Z,13.10
2022-08-07T21:44:29.919Z,13.06
2022-08-07T21:46:59.667Z,13.07
2022-08-07T21:49:29.930Z,13.00
2022-08-07T21:52:04.833Z,12.95
2022-08-07T21:54:37.379Z,12.94
2022-08-07T21:57:31.362Z,12.91
2022-08-07T22:00:04.138Z,12.87
2022-08-07T22:02:41.114Z,12.80
2022-08-07T22:05:12.227Z,12.79
2022-08-07T22:07:58.495Z,12.76
2022-08-07T22:10:16.846Z,12.73
2022-08-07T22:12:47.175Z,12.70
2022-08-07T22:16:41.423Z,12.66
2022-08-07T22:17:57.811Z,12.63
2022-08-07T22:20:44.989Z,12.63
2022-08-07T22:23:32.048Z,12.57
2022-08-07T22:26:14.277Z,12.55
2022-08-07T22:28:53.476Z,12.52
2022-08-07T22:31:58.937Z,12.47
2022-08-07T22:33:56.822Z,12.48
2022-08-07T22:36:31.936Z,12.41
2022-08-07T22:39:02.517Z,12.39
2022-08-07T22:42:04.174Z,12.33
2022-08-07T22:44:12.801Z,12.31
2022-08-07T22:47:06.162Z,12.28
2022-08-07T22:49:39.688Z,12.23
2022-08-07T22:52:37.523Z,12.18
2022-08-07T22:55:22.853Z,12.16
2022-08-07T22:57:52.896Z,12.00
2022-08-07T23:00:28.767Z,12.03
2022-08-07T23:03:00.791Z,12.01
2022-08-07T23:06:09.576Z,11.99
2022-08-07T23:08:24.191Z,11.95
2022-08-07T23:10:56.113Z,11.92
2022-08-07T23:13:48.860Z,11.91
2022-08-07T23:16:46.900Z,11.90
2022-08-07T23:19:16.260Z,11.86
2022-08-07T23:21:53.880Z,11.85
2022-08-07T23:24:30.097Z,11.83
2022-08-07T23:27:15.513Z,11.81
2022-08-07T23:30:38.934Z,11.81
2022-08-07T23:34:19.421Z,11.75
2022-08-07T23:35:08.944Z,11.71
2022-08-07T23:38:00.514Z,11.70
2022-08-07T23:40:15.084Z,11.65
2022-08-07T23:42:53.378Z,11.65
2022-08-07T23:46:01.679Z,11.62
2022-08-07T23:48:10.360Z,11.60
2022-08-07T23:50:42.582Z,11.58
2022-08-07T23:53:49.387Z,11.53
2022-08-07T23:56:03.810Z,11.49
2022-08-07T23:58:35.215Z,11.44
